Time;durP1;ratioP1;P1;durP2;ratioP2;P2;SDS_P1;SDS_P2;PMS_P1;PMS_P2;Temp;Humidity;BMP_temperature;BMP_pressure;BME280_temperature;BME280_humidity;BME280_pressure;Samples;Min_cycle;Max_cycle;Signal;HPM_P1;HPM_P2
2024/04/07 00:04:42;;;;;;;0.10;0.10;;;;;;;-145.06;86.85;52219.97;10481259;28;20020;-74
2024/04/07 00:09:42;;;;;;;0.10;0.10;;;;;;;-145.06;86.68;52219.97;10485524;28;20421;-74
2024/04/07 00:14:44;;;;;;;0.10;0.10;;;;;;;-145.06;85.82;52264.50;10486804;28;20025;-74
2024/04/07 00:19:46;;;;;;;0.10;0.10;;;;;;;-145.06;85.42;52252.34;10482596;28;20389;-74
2024/04/07 00:24:47;;;;;;;0.10;0.10;;;;;;;-145.06;85.30;52248.31;10487416;28;20056;-74
2024/04/07 00:29:48;;;;;;;0.10;0.10;;;;;;;-145.06;85.94;52246.28;10482085;28;20611;-74
2024/04/07 00:34:49;;;;;;;0.00;0.00;;;;;;;-145.06;86.80;52258.41;10484521;28;20020;-74
2024/04/07 00:39:49;;;;;;;0.10;0.10;;;;;;;-145.06;86.90;52244.25;10487392;28;20048;-74
2024/04/07 00:44:51;;;;;;;0.10;0.10;;;;;;;-145.06;87.17;52260.44;10489375;28;20020;-73
2024/04/07 00:49:51;;;;;;;0.10;0.10;;;;;;;-145.06;86.75;52256.41;10485748;28;20022;-74
2024/04/07 00:54:52;;;;;;;0.10;0.10;;;;;;;-145.06;85.79;52252.34;10488816;28;20021;-74
2024/04/07 00:59:53;;;;;;;0.05;0.05;;;;;;;-145.06;84.68;52270.56;10487382;28;20108;-74
2024/04/07 01:04:54;;;;;;;0.10;0.10;;;;;;;-145.06;85.48;52282.72;10483400;28;20021;-74
2024/04/07 01:09:55;;;;;;;0.10;0.10;;;;;;;-145.06;86.21;52292.84;10488466;28;20115;-75
2024/04/07 01:14:55;;;;;;;0.10;0.10;;;;;;;-145.06;86.43;52274.63;10487474;28;20039;-73
2024/04/07 01:19:56;;;;;;;0.10;0.10;;;;;;;-145.06;84.94;52309.03;10486347;28;20371;-74
2024/04/07 01:24:56;;;;;;;0.00;0.00;;;;;;;-145.06;82.52;52313.06;10486102;28;20474;-74
2024/04/07 01:29:56;;;;;;;0.00;0.00;;;;;;;-145.06;82.54;52304.97;10482453;28;20107;-75
2024/04/07 01:34:56;;;;;;;0.10;0.10;;;;;;;-145.06;82.66;52296.88;10476774;28;20017;-74
2024/04/07 01:40:02;;;;;;;0.10;0.10;;;;;;;-145.06;81.11;52300.94;10481192;28;20075;-74
2024/04/07 01:45:03;;;;;;;0.00;0.00;;;;;;;-145.06;81.07;52315.09;10483493;28;20285;-74
2024/04/07 01:50:04;;;;;;;0.10;0.10;;;;;;;-145.06;80.64;52294.84;10481959;28;20028;-74
2024/04/07 01:55:05;;;;;;;0.08;0.08;;;;;;;-145.06;78.94;52313.06;10483013;28;20051;-74
2024/04/07 02:00:07;;;;;;;0.00;0.00;;;;;;;-145.06;79.09;52272.59;10481048;28;20546;-74
2024/04/07 02:05:07;;;;;;;0.00;0.00;;;;;;;-145.06;79.29;52307.00;10478066;28;20024;-74
2024/04/07 02:10:08;;;;;;;0.10;0.10;;;;;;;-145.06;77.47;52292.84;10484762;28;20595;-75
2024/04/07 02:15:09;;;;;;;0.10;0.10;;;;;;;-145.06;77.96;52286.75;10480585;28;20017;-74
2024/04/07 02:20:10;;;;;;;0.10;0.10;;;;;;;-145.06;77.32;52309.03;10483479;28;20020;-74
2024/04/07 02:25:10;;;;;;;0.00;0.00;;;;;;;-145.06;74.98;52280.69;10480201;28;20470;-74
2024/04/07 02:30:10;;;;;;;0.00;0.00;;;;;;;-145.06;73.61;52284.75;10478193;28;20017;-74
2024/04/07 02:35:12;;;;;;;0.00;0.00;;;;;;;-145.06;73.01;52270.56;10484651;28;20012;-74
2024/04/07 02:40:12;;;;;;;0.00;0.00;;;;;;;-145.06;74.64;52302.97;10486684;28;20103;-74
2024/04/07 02:50:53;;;;;;;0.00;0.00;;;;;;;-145.06;74.61;52290.81;10371969;28;20033;-74
2024/04/07 02:55:53;;;;;;;0.10;0.10;;;;;;;-145.06;74.29;52307.00;10454667;28;20024;-74
2024/04/07 03:01:05;;;;;;;0.10;0.10;;;;;;;-145.06;75.54;52321.19;10476849;28;20020;-74
2024/04/07 03:06:12;;;;;;;0.08;0.08;;;;;;;-145.06;76.54;52315.09;10474610;28;20024;-74
2024/04/07 03:11:12;;;;;;;0.00;0.00;;;;;;;-145.06;75.61;52325.22;10474710;28;20036;-74
2024/04/07 03:16:14;;;;;;;0.00;0.00;;;;;;;-145.06;76.08;52345.47;10476468;28;20017;-74
2024/04/07 03:21:14;;;;;;;0.00;0.00;;;;;;;-145.06;77.53;52317.13;10471912;28;20695;-74
2024/04/07 03:26:15;;;;;;;0.10;0.10;;;;;;;-145.06;78.67;52327.25;10473959;28;20077;-74
2024/04/07 03:31:15;;;;;;;0.10;0.10;;;;;;;-145.06;78.74;52349.50;10477754;28;20032;-74
2024/04/07 03:36:15;;;;;;;0.10;0.10;;;;;;;-145.06;78.26;52369.75;10475122;28;20020;-74
2024/04/07 03:41:15;;;;;;;0.05;0.05;;;;;;;-145.06;78.90;52359.63;10471182;28;21436;-73
2024/04/07 03:46:17;;;;;;;0.00;0.00;;;;;;;-145.06;79.52;52329.28;10473588;28;20028;-74
2024/04/07 03:51:17;;;;;;;0.00;0.00;;;;;;;-145.06;80.11;52331.28;10466272;28;20021;-75
2024/04/07 03:56:18;;;;;;;0.00;0.00;;;;;;;-145.06;82.47;52365.72;10476086;28;20079;-74
2024/04/07 04:01:18;;;;;;;0.10;0.10;;;;;;;-145.06;83.36;52371.78;10475745;28;20017;-74
2024/04/07 04:06:18;;;;;;;0.10;0.10;;;;;;;-145.06;84.64;52371.78;10474862;28;20023;-73
2024/04/07 04:11:19;;;;;;;0.08;0.08;;;;;;;-145.06;81.54;52404.19;10476823;28;20036;-73
2024/04/07 04:16:19;;;;;;;0.10;0.10;;;;;;;-145.06;81.83;52341.41;10474631;28;20032;-73
2024/04/07 04:21:19;;;;;;;0.10;0.10;;;;;;;-145.06;80.65;52349.50;10474704;28;20017;-73
2024/04/07 04:26:20;;;;;;;0.10;0.10;;;;;;;-145.06;76.46;52331.28;10471561;28;20367;-73
2024/04/07 04:31:20;;;;;;;0.10;0.10;;;;;;;-145.06;75.71;52313.06;10475445;28;20394;-73
2024/04/07 04:36:20;;;;;;;0.10;0.10;;;;;;;-145.06;74.73;52323.19;10471919;28;20489;-73
2024/04/07 04:41:20;;;;;;;0.00;0.00;;;;;;;-145.06;74.87;52309.03;10474885;28;20033;-73
2024/04/07 04:46:21;;;;;;;0.10;0.10;;;;;;;-145.06;76.21;52268.53;10475529;28;20025;-73
2024/04/07 04:51:22;;;;;;;0.00;0.00;;;;;;;-145.06;78.79;52272.59;10472967;28;20044;-73
2024/04/07 04:56:22;;;;;;;0.10;0.10;;;;;;;-145.06;81.05;52272.59;10499926;28;20024;-73
2024/04/07 05:01:24;;;;;;;0.10;0.10;;;;;;;-145.06;83.13;52236.16;10479656;28;20035;-73
2024/04/07 05:06:24;;;;;;;0.10;0.10;;;;;;;-145.06;85.36;52258.41;10476969;28;20025;-72
2024/04/07 05:11:24;;;;;;;0.00;0.00;;;;;;;-145.06;87.37;52264.50;10478737;28;20043;-73
2024/04/07 05:16:25;;;;;;;0.08;0.08;;;;;;;-145.06;88.87;52290.81;10466134;28;20025;-73
2024/04/07 05:21:25;;;;;;;0.10;0.10;;;;;;;-145.06;90.52;52272.59;10471583;28;20020;-73
2024/04/07 05:26:26;;;;;;;0.00;0.00;;;;;;;-145.06;92.36;52258.41;10479416;28;20032;-74
2024/04/07 05:31:26;;;;;;;0.10;0.10;;;;;;;-145.06;92.72;52266.53;10471239;28;20496;-73
2024/04/07 05:36:26;;;;;;;0.10;0.10;;;;;;;-145.06;93.46;52246.28;10479297;28;20058;-73
2024/04/07 05:41:26;;;;;;;0.10;0.10;;;;;;;-145.06;93.81;52217.94;10469950;28;20115;-73
2024/04/07 05:46:27;;;;;;;0.10;0.10;;;;;;;-145.06;94.43;52246.28;10478529;28;20050;-73
2024/04/07 05:51:28;;;;;;;0.00;0.00;;;;;;;-145.06;94.80;52224.00;10471394;28;20437;-73
2024/04/07 05:56:28;;;;;;;0.10;0.10;;;;;;;-145.06;94.41;52201.75;10468928;28;20559;-73
2024/04/07 06:01:28;;;;;;;0.05;0.05;;;;;;;-145.06;94.03;52215.91;10475247;28;20079;-73
2024/04/07 06:06:29;;;;;;;0.10;0.10;;;;;;;-145.06;93.37;52181.50;10469350;28;20045;-73
2024/04/07 06:11:30;;;;;;;0.00;0.00;;;;;;;-145.06;92.58;52211.88;10474079;28;20559;-73
2024/04/07 06:16:30;;;;;;;0.00;0.00;;;;;;;-145.06;92.58;52201.75;10480449;28;20029;-72
2024/04/07 06:21:31;;;;;;;0.00;0.00;;;;;;;-145.06;91.04;52221.97;10478205;28;20036;-73
2024/04/07 06:26:31;;;;;;;0.10;0.10;;;;;;;-145.06;90.23;52189.59;10476415;28;20087;-73
2024/04/07 06:31:31;;;;;;;0.10;0.10;;;;;;;-145.06;91.03;52217.94;10482462;28;20028;-74
2024/04/07 06:36:33;;;;;;;0.10;0.10;;;;;;;-145.06;91.72;52250.31;10473874;28;20025;-73
2024/04/07 06:41:34;;;;;;;0.00;0.00;;;;;;;-145.06;91.81;52221.97;10472071;28;20035;-73
2024/04/07 06:46:35;;;;;;;0.10;0.10;;;;;;;-145.06;92.34;52193.66;10471828;28;20398;-73
2024/04/07 06:51:35;;;;;;;0.00;0.00;;;;;;;-145.06;93.90;52177.44;10475130;28;20032;-73
2024/04/07 06:56:35;;;;;;;0.10;0.10;;;;;;;-145.06;94.98;52207.81;10470434;28;20540;-73
2024/04/07 07:01:35;;;;;;;0.10;0.10;;;;;;;-145.06;97.04;52179.47;10471704;28;20417;-73
2024/04/07 07:06:36;;;;;;;0.10;0.10;;;;;;;-145.06;98.22;52215.91;10465368;28;20025;-72
2024/04/07 07:11:36;;;;;;;0.10;0.10;;;;;;;-145.06;99.27;52201.75;10475314;28;20589;-73
2024/04/07 07:16:37;;;;;;;0.00;0.00;;;;;;;-145.06;99.86;52215.91;10479921;28;20033;-72
2024/04/07 07:21:37;;;;;;;0.08;0.08;;;;;;;-145.06;100.00;52181.50;10475728;28;20027;-72
2024/04/07 07:26:37;;;;;;;0.00;0.00;;;;;;;-145.06;100.00;52193.66;10477569;28;20060;-72
2024/04/07 07:31:38;;;;;;;0.10;0.10;;;;;;;-145.06;100.00;52167.31;10478393;28;20020;-73
2024/04/07 07:36:38;;;;;;;0.10;0.10;;;;;;;-145.06;100.00;52191.63;10465405;28;20107;-73
2024/04/07 07:41:38;;;;;;;0.10;0.10;;;;;;;-145.06;100.00;52163.28;10473701;28;20032;-74
2024/04/07 07:46:39;;;;;;;0.10;0.10;;;;;;;-145.06;100.00;52159.22;10471207;28;20394;-74
2024/04/07 07:51:39;;;;;;;0.10;0.10;;;;;;;-145.06;100.00;52157.22;10463513;28;20035;-74
2024/04/07 07:56:39;;;;;;;0.10;0.10;;;;;;;-145.06;100.00;52134.94;10476448;28;20021;-74
2024/04/07 08:01:40;;;;;;;0.10;0.10;;;;;;;-145.06;100.00;52128.88;10472663;28;20020;-74
2024/04/07 08:06:40;;;;;;;0.10;0.10;;;;;;;-145.06;100.00;52088.38;10467603;28;20390;-75
2024/04/07 08:11:40;;;;;;;0.10;0.10;;;;;;;-145.06;100.00;52086.34;10472061;28;20051;-74
2024/04/07 08:16:41;;;;;;;0.10;0.10;;;;;;;-145.06;99.92;52074.22;10465290;28;20399;-75
2024/04/07 08:21:42;;;;;;;0.10;0.10;;;;;;;-145.06;99.03;52021.59;10472342;28;20290;-75
2024/04/07 08:26:42;;;;;;;0.00;0.00;;;;;;;-145.06;99.78;52027.66;10463845;28;20435;-75
2024/04/07 08:31:43;;;;;;;0.00;0.00;;;;;;;-145.06;95.67;52017.53;10472450;28;20024;-75
2024/04/07 08:36:43;;;;;;;0.10;0.10;;;;;;;-145.06;93.40;51987.16;10479081;28;20035;-75
2024/04/07 08:41:45;;;;;;;0.00;0.00;;;;;;;-145.06;93.13;51997.28;10480260;28;20031;-74
2024/04/07 08:46:47;;;;;;;0.00;0.00;;;;;;;-145.06;91.30;51936.56;10485742;28;20536;-75
2024/04/07 08:51:49;;;;;;;0.10;0.10;;;;;;;-145.06;88.40;51936.56;10480539;28;20494;-75
2024/04/07 08:56:50;;;;;;;0.00;0.00;;;;;;;-145.06;83.16;51908.22;10483654;28;20020;-74
2024/04/07 09:01:54;;;;;;;0.10;0.10;;;;;;;-145.06;82.86;51883.94;10480163;28;20033;-75
2024/04/07 09:06:54;;;;;;;0.00;0.00;;;;;;;-145.06;80.73;51689.63;10489846;28;20246;-75
2024/04/07 09:11:55;;;;;;;0.00;0.00;;;;;;;-145.06;67.93;51677.47;10476886;28;20033;-75
2024/04/07 09:17:01;;;;;;;0.08;0.08;;;;;;;-145.06;66.06;51661.28;10482458;28;20511;-75
2024/04/07 09:22:02;;;;;;;0.00;0.00;;;;;;;-145.06;63.92;51657.25;10480223;28;20417;-75
2024/04/07 09:27:10;;;;;;;0.00;0.00;;;;;;;-145.06;59.54;51697.72;10481532;28;20051;-75
2024/04/07 09:32:10;;;;;;;0.00;0.00;;;;;;;-145.06;58.82;51734.16;10465496;28;20013;-75
2024/04/07 09:37:10;;;;;;;0.00;0.00;;;;;;;-145.06;58.36;51685.59;10479583;28;20462;-75
2024/04/07 09:42:19;;;;;;;0.00;0.00;;;;;;;-145.06;57.95;51681.53;10487953;28;20024;-75
2024/04/07 09:47:25;;;;;;;0.10;0.10;;;;;;;-145.06;56.12;51709.88;10483087;28;20032;-75
2024/04/07 09:52:31;;;;;;;0.10;0.10;;;;;;;-145.06;55.10;51736.19;10476588;28;20017;-75
2024/04/07 09:57:32;;;;;;;0.10;0.10;;;;;;;-145.06;55.04;51807.03;10470693;28;20024;-77
2024/04/07 10:02:33;;;;;;;0.00;0.00;;;;;;;-145.06;56.58;51786.78;10470904;28;20493;-77
2024/04/07 10:07:37;;;;;;;0.05;0.05;;;;;;;-145.06;57.42;51754.41;10480377;28;20048;-77
2024/04/07 10:12:38;;;;;;;0.00;0.00;;;;;;;-145.06;57.94;51709.88;10477644;28;20028;-77
2024/04/07 10:17:38;;;;;;;0.00;0.00;;;;;;;-145.06;56.27;51722.00;10484328;28;20394;-77
2024/04/07 10:22:38;;;;;;;0.00;0.00;;;;;;;-145.06;53.40;51805.00;10479116;28;20032;-77
2024/04/07 10:27:44;;;;;;;0.10;0.10;;;;;;;-145.06;55.03;51772.63;10485580;28;20063;-77
2024/04/07 10:32:50;;;;;;;0.00;0.00;;;;;;;-145.06;55.44;51756.41;10477960;28;20025;-77
2024/04/07 10:37:51;;;;;;;0.00;0.00;;;;;;;-145.06;54.75;51764.53;10479714;28;20428;-77
2024/04/07 10:42:51;;;;;;;0.05;0.05;;;;;;;-145.06;55.35;51717.97;10475211;28;20074;-77
2024/04/07 10:47:51;;;;;;;0.00;0.00;;;;;;;-145.06;55.13;51705.81;10476259;28;20540;-77
2024/04/07 10:53:00;;;;;;;0.00;0.00;;;;;;;-145.06;52.38;51711.91;10475773;28;20023;-76
2024/04/07 10:58:01;;;;;;;0.10;0.10;;;;;;;-145.06;53.50;51673.44;10468682;28;20044;-74
2024/04/07 11:03:01;;;;;;;0.10;0.10;;;;;;;-145.06;52.30;51717.97;10473103;28;20025;-77
2024/04/07 11:08:01;;;;;;;0.00;0.00;;;;;;;-145.06;51.33;51782.72;10471817;28;20033;-79
2024/04/07 11:13:04;;;;;;;0.10;0.10;;;;;;;-145.06;51.44;51825.25;10477143;28;20415;-78
2024/04/07 11:18:14;;;;;;;0.10;0.10;;;;;;;-145.06;54.25;51784.75;10473283;28;20036;-78
2024/04/07 11:23:15;;;;;;;0.00;0.00;;;;;;;-145.06;53.11;51772.63;10483146;28;20040;-78
2024/04/07 11:28:17;;;;;;;0.10;0.10;;;;;;;-145.06;51.24;51798.94;10480385;28;20016;-78
2024/04/07 11:33:18;;;;;;;0.00;0.00;;;;;;;-145.06;50.50;51811.06;10483118;28;20047;-79
2024/04/07 11:38:18;;;;;;;0.00;0.00;;;;;;;-145.06;49.86;51853.56;10481561;28;20107;-77
2024/04/07 11:43:19;;;;;;;0.10;0.10;;;;;;;-145.06;51.03;51782.72;10477430;28;20283;-74
2024/04/07 11:48:21;;;;;;;0.00;0.00;;;;;;;-145.06;49.58;51790.84;10476301;28;20027;-78
2024/04/07 11:53:21;;;;;;;0.00;0.00;;;;;;;-145.06;50.15;51778.69;10476555;28;20494;-78
2024/04/07 11:58:22;;;;;;;0.00;0.00;;;;;;;-145.06;48.57;51932.53;10475041;28;20036;-77
2024/04/07 12:03:22;;;;;;;0.00;0.00;;;;;;;-145.06;50.17;51847.50;10464341;28;20361;-78
2024/04/07 12:08:23;;;;;;;0.00;0.00;;;;;;;-145.06;49.87;51875.84;10475254;28;20025;-78
2024/04/07 12:13:23;;;;;;;0.00;0.00;;;;;;;-145.06;49.26;51944.66;10473513;28;20068;-78
2024/04/07 12:18:23;;;;;;;0.00;0.00;;;;;;;-145.06;50.20;51970.97;10482047;28;20405;-78
2024/04/07 12:23:23;;;;;;;0.00;0.00;;;;;;;-145.06;52.04;51883.94;10476362;28;20056;-78
2024/04/07 12:28:24;;;;;;;0.00;0.00;;;;;;;-145.06;51.94;51853.56;10478321;28;20111;-78
2024/04/07 12:33:24;;;;;;;0.00;0.00;;;;;;;-145.06;50.04;51898.09;10465213;28;20017;-78
2024/04/07 12:38:24;;;;;;;0.07;0.07;;;;;;;-145.06;48.46;51924.41;10471662;28;20259;-79
2024/04/07 12:43:25;;;;;;;0.00;0.00;;;;;;;-145.06;48.48;51904.19;10479737;28;20028;-78
2024/04/07 12:48:25;;;;;;;0.00;0.00;;;;;;;-145.06;51.29;51819.16;10469290;28;20058;-78
2024/04/07 12:53:25;;;;;;;0.10;0.10;;;;;;;-145.06;48.14;51924.41;10476934;28;20047;-78
2024/04/07 12:58:26;;;;;;;0.00;0.00;;;;;;;-145.06;48.20;51932.53;10478818;28;20023;-76
2024/04/07 13:03:27;;;;;;;0.00;0.00;;;;;;;-145.06;48.06;51896.09;10479005;28;20047;-74
2024/04/07 13:08:27;;;;;;;0.10;0.10;;;;;;;-145.06;47.31;51898.09;10473607;28;20107;-77
2024/04/07 13:13:28;;;;;;;0.00;0.00;;;;;;;-145.06;47.92;51894.06;10477245;28;20035;-77
2024/04/07 13:18:28;;;;;;;0.10;0.10;;;;;;;-145.06;46.91;51983.13;10482939;28;20039;-76
2024/04/07 13:23:29;;;;;;;0.10;0.10;;;;;;;-145.06;49.26;51888.00;10488239;28;20035;-76
2024/04/07 13:28:29;;;;;;;0.00;0.00;;;;;;;-145.06;46.37;51985.16;10484284;28;20281;-76
2024/04/07 13:33:29;;;;;;;0.00;0.00;;;;;;;-145.06;45.06;52013.50;10472586;28;20059;-76
2024/04/07 13:38:30;;;;;;;0.00;0.00;;;;;;;-145.06;44.49;52053.97;10484475;28;20095;-77
2024/04/07 13:43:30;;;;;;;0.00;0.00;;;;;;;-145.06;47.39;52027.66;10469727;28;20029;-75
2024/04/07 13:48:30;;;;;;;0.00;0.00;;;;;;;-145.06;43.88;52195.66;10480669;28;20070;-76
2024/04/07 13:53:30;;;;;;;0.00;0.00;;;;;;;-145.06;46.33;52058.03;10473668;28;20024;-76
2024/04/07 13:58:31;;;;;;;0.00;0.00;;;;;;;-145.06;45.25;52078.25;10472709;28;20017;-76
2024/04/07 14:03:31;;;;;;;0.00;0.00;;;;;;;-145.06;45.67;52070.16;10477642;28;20029;-76
2024/04/07 14:08:32;;;;;;;0.00;0.00;;;;;;;-145.06;43.98;52116.72;10481051;28;20048;-76
2024/04/07 14:13:32;;;;;;;0.00;0.00;;;;;;;-145.06;44.71;52153.16;10472947;28;20043;-76
2024/04/07 14:18:32;;;;;;;0.00;0.00;;;;;;;-145.06;44.89;52143.03;10477826;28;20074;-76
2024/04/07 14:23:32;;;;;;;0.00;0.00;;;;;;;-145.06;45.28;52132.91;10473610;28;20093;-78
2024/04/07 14:28:36;;;;;;;0.00;0.00;;;;;;;-145.06;43.60;52205.78;10473527;28;20017;-76
2024/04/07 14:33:36;;;;;;;0.10;0.10;;;;;;;-145.06;45.58;52165.31;10471891;28;20386;-78
2024/04/07 14:38:37;;;;;;;0.00;0.00;;;;;;;-145.06;43.18;52236.16;10474784;28;20021;-78
2024/04/07 14:43:37;;;;;;;0.00;0.00;;;;;;;-145.06;43.36;52248.31;10481899;28;20081;-75
2024/04/07 14:48:38;;;;;;;0.10;0.10;;;;;;;-145.06;44.30;52256.41;10476660;28;20021;-78
2024/04/07 14:53:38;;;;;;;0.10;0.10;;;;;;;-145.06;44.96;52191.63;10465418;28;20413;-75
2024/04/07 14:58:38;;;;;;;0.07;0.07;;;;;;;-145.06;43.22;52264.50;10469933;28;20040;-77
2024/04/07 15:03:39;;;;;;;0.00;0.00;;;;;;;-145.06;44.56;52230.09;10469845;28;20402;-77
2024/04/07 15:08:39;;;;;;;0.00;0.00;;;;;;;-145.06;45.11;52244.25;10473047;28;20100;-77
2024/04/07 15:13:39;;;;;;;0.00;0.00;;;;;;;-145.06;44.23;52276.63;10471868;28;20359;-76
2024/04/07 15:18:40;;;;;;;0.00;0.00;;;;;;;-145.06;44.75;52294.84;10469956;28;20028;-77
2024/04/07 15:23:40;;;;;;;0.10;0.10;;;;;;;-145.06;45.08;52284.75;10475912;28;20040;-76
2024/04/07 15:28:40;;;;;;;0.00;0.00;;;;;;;-145.06;45.33;52313.06;10465799;28;20032;-77
2024/04/07 15:33:42;;;;;;;0.08;0.08;;;;;;;-145.06;44.65;52309.03;10476271;28;20037;-77
2024/04/07 15:38:42;;;;;;;0.00;0.00;;;;;;;-145.06;44.90;52292.84;10466513;28;20020;-77
2024/04/07 15:43:43;;;;;;;0.10;0.10;;;;;;;-145.06;45.64;52280.69;10470218;28;20035;-77
2024/04/07 15:48:44;;;;;;;0.10;0.10;;;;;;;-145.06;46.42;52307.00;10475728;28;20043;-76
2024/04/07 15:53:44;;;;;;;0.10;0.10;;;;;;;-145.06;46.94;52248.31;10461109;28;20016;-77
2024/04/07 15:58:44;;;;;;;0.00;0.00;;;;;;;-145.06;46.97;52246.28;10469871;28;20021;-76
2024/04/07 16:03:44;;;;;;;0.10;0.10;;;;;;;-145.06;46.92;52278.66;10461856;28;20111;-77
2024/04/07 16:08:45;;;;;;;0.00;0.00;;;;;;;-145.06;46.63;52274.63;10477956;28;20020;-76
2024/04/07 16:13:50;;;;;;;0.00;0.00;;;;;;;-145.06;46.50;52290.81;10474315;28;20439;-77
2024/04/07 16:18:51;;;;;;;0.00;0.00;;;;;;;-145.06;47.01;52339.41;10467259;28;20024;-77
2024/04/07 16:23:51;;;;;;;0.00;0.00;;;;;;;-145.06;46.68;52357.63;10461965;28;20040;-77
2024/04/07 16:28:51;;;;;;;0.00;0.00;;;;;;;-145.06;47.70;52333.31;10470700;28;20016;-77
2024/04/07 16:33:52;;;;;;;0.00;0.00;;;;;;;-145.06;47.48;52351.53;10465641;28;20467;-77
2024/04/07 16:38:53;;;;;;;0.00;0.00;;;;;;;-145.06;44.12;52432.53;10469990;28;20021;-77
2024/04/07 16:43:54;;;;;;;0.10;0.10;;;;;;;-145.06;44.63;52438.59;10471902;28;20108;-77
2024/04/07 16:48:54;;;;;;;0.00;0.00;;;;;;;-145.06;44.43;52470.97;10470684;28;20115;-77
2024/04/07 16:53:54;;;;;;;0.00;0.00;;;;;;;-145.06;45.55;52475.03;10475540;28;20429;-77
2024/04/07 16:58:55;;;;;;;0.10;0.10;;;;;;;-145.06;45.77;52473.00;10478976;28;20053;-77
2024/04/07 17:03:55;;;;;;;0.00;0.00;;;;;;;-145.06;45.77;52499.31;10481575;28;20020;-77
2024/04/07 17:08:55;;;;;;;0.00;0.00;;;;;;;-145.06;46.15;52499.31;10473705;28;20323;-78
2024/04/07 17:14:02;;;;;;;0.00;0.00;;;;;;;-145.06;46.79;52525.63;10484843;28;20020;-76
2024/04/07 17:19:04;;;;;;;0.00;0.00;;;;;;;-145.06;47.25;52517.53;10477343;28;20063;-77
2024/04/07 17:24:05;;;;;;;0.05;0.05;;;;;;;-145.06;48.17;52531.72;10477540;28;20402;-76
2024/04/07 17:29:05;;;;;;;0.00;0.00;;;;;;;-145.06;48.57;52543.84;10476273;28;20029;-76
2024/04/07 17:34:05;;;;;;;0.00;0.00;;;;;;;-145.06;48.61;52551.97;10475952;28;20485;-76
2024/04/07 17:39:07;;;;;;;0.00;0.00;;;;;;;-145.06;48.22;52608.66;10474344;28;20108;-77
2024/04/07 17:44:07;;;;;;;0.00;0.00;;;;;;;-145.06;49.13;52639.00;10475196;28;20019;-76
2024/04/07 17:49:07;;;;;;;0.00;0.00;;;;;;;-145.06;49.11;52624.84;10478331;28;20017;-76
2024/04/07 17:54:08;;;;;;;0.10;0.10;;;;;;;-145.06;49.89;52653.19;10484017;28;20020;-77
2024/04/07 17:59:08;;;;;;;0.10;0.10;;;;;;;-145.06;50.84;52645.09;10485246;28;20020;-77
2024/04/07 18:04:09;;;;;;;0.00;0.00;;;;;;;-145.06;50.97;52657.22;10478504;28;20020;-76
2024/04/07 18:09:09;;;;;;;0.00;0.00;;;;;;;-145.06;53.05;52679.50;10479448;28;20028;-76
2024/04/07 18:14:10;;;;;;;0.00;0.00;;;;;;;-145.06;53.60;52683.56;10472718;28;20017;-76
2024/04/07 18:19:10;;;;;;;0.10;0.10;;;;;;;-145.06;56.00;52703.78;10484565;28;20111;-76
2024/04/07 18:24:11;;;;;;;0.00;0.00;;;;;;;-145.06;59.40;52661.28;10476668;28;20043;-77
2024/04/07 18:29:11;;;;;;;0.10;0.10;;;;;;;-145.06;59.46;52689.63;10477096;28;20032;-77
2024/04/07 18:34:11;;;;;;;0.00;0.00;;;;;;;-145.06;60.50;52645.09;10481394;28;20414;-76
2024/04/07 18:39:11;;;;;;;0.10;0.10;;;;;;;-145.06;63.27;52683.56;10474705;28;20474;-76
2024/04/07 18:44:12;;;;;;;0.10;0.10;;;;;;;-145.06;64.14;52671.41;10474623;28;20078;-77
2024/04/07 18:49:12;;;;;;;0.00;0.00;;;;;;;-145.06;64.96;52673.44;10474990;28;20272;-77
2024/04/07 18:54:12;;;;;;;0.10;0.10;;;;;;;-145.06;65.46;52667.34;10483714;28;20023;-76
2024/04/07 18:59:13;;;;;;;0.00;0.00;;;;;;;-145.06;67.30;52651.16;10468074;28;20021;-76
2024/04/07 19:04:13;;;;;;;0.00;0.00;;;;;;;-145.06;67.33;52661.28;10477105;28;20016;-77
2024/04/07 19:09:13;;;;;;;0.00;0.00;;;;;;;-145.06;70.00;52663.31;10465687;28;20458;-76
2024/04/07 19:14:13;;;;;;;0.10;0.10;;;;;;;-145.06;69.55;52665.34;10474738;28;20269;-76
2024/04/07 19:19:14;;;;;;;0.00;0.00;;;;;;;-145.06;70.39;52665.34;10472219;28;20474;-77
2024/04/07 19:24:14;;;;;;;0.10;0.10;;;;;;;-145.06;71.93;52669.38;10471136;28;20263;-76
2024/04/07 19:29:16;;;;;;;0.10;0.10;;;;;;;-145.06;75.16;52645.09;10471182;28;20024;-75
2024/04/07 19:34:16;;;;;;;0.00;0.00;;;;;;;-145.06;75.42;52614.72;10481663;28;20109;-76
2024/04/07 19:39:18;;;;;;;0.00;0.00;;;;;;;-145.06;74.57;52624.84;10471062;28;20024;-76
2024/04/07 19:44:19;;;;;;;0.00;0.00;;;;;;;-145.06;71.24;52661.28;10471900;28;20025;-76
2024/04/07 19:49:19;;;;;;;0.10;0.10;;;;;;;-145.06;68.67;52637.00;10480754;28;20048;-76
2024/04/07 19:54:20;;;;;;;0.10;0.10;;;;;;;-145.06;68.55;52616.75;10473367;28;20009;-76
2024/04/07 19:59:20;;;;;;;0.00;0.00;;;;;;;-145.06;70.73;52602.56;10478312;28;20107;-77
2024/04/07 20:04:21;;;;;;;0.10;0.10;;;;;;;-145.06;71.45;52596.50;10474802;28;20424;-77
2024/04/07 20:09:21;;;;;;;0.00;0.00;;;;;;;-145.06;68.99;52632.94;10474038;28;20036;-77
2024/04/07 20:14:22;;;;;;;0.00;0.00;;;;;;;-145.06;68.93;52630.91;10477753;28;20025;-77
2024/04/07 20:19:22;;;;;;;0.00;0.00;;;;;;;-145.06;68.08;52649.13;10472824;28;20278;-76
2024/04/07 20:24:22;;;;;;;0.00;0.00;;;;;;;-145.06;67.04;52643.06;10479609;28;20025;-76
2024/04/07 20:29:23;;;;;;;0.00;0.00;;;;;;;-145.06;66.01;52639.00;10482964;28;20501;-77
2024/04/07 20:34:23;;;;;;;0.10;0.10;;;;;;;-145.06;68.89;52590.44;10483318;28;20036;-76
2024/04/07 20:39:24;;;;;;;0.10;0.10;;;;;;;-145.06;73.07;52543.84;10486758;28;20020;-77
2024/04/07 20:44:24;;;;;;;0.10;0.10;;;;;;;-145.06;72.13;52590.44;10474600;28;20025;-76
2024/04/07 20:49:25;;;;;;;0.10;0.10;;;;;;;-145.06;68.29;52590.44;10475897;28;20032;-76
2024/04/07 20:54:25;;;;;;;0.00;0.00;;;;;;;-145.06;67.53;52586.38;10480050;28;20268;-76
2024/04/07 20:59:26;;;;;;;0.10;0.10;;;;;;;-145.06;65.74;52582.31;10486521;28;20032;-76
2024/04/07 21:04:26;;;;;;;0.10;0.10;;;;;;;-145.06;64.86;52598.53;10483563;28;20075;-76
2024/04/07 21:09:27;;;;;;;0.00;0.00;;;;;;;-145.06;64.07;52584.34;10491043;28;20655;-76
2024/04/07 21:14:27;;;;;;;0.10;0.10;;;;;;;-145.06;64.89;52556.00;10482243;28;20537;-76
2024/04/07 21:19:27;;;;;;;0.10;0.10;;;;;;;-145.06;64.42;52576.25;10482397;28;20012;-76
2024/04/07 21:24:27;;;;;;;0.10;0.10;;;;;;;-145.06;63.32;52570.19;10488121;28;20017;-76
2024/04/07 21:29:28;;;;;;;0.00;0.00;;;;;;;-145.06;63.23;52560.06;10482448;28;20036;-76
2024/04/07 21:34:28;;;;;;;0.00;0.00;;;;;;;-145.06;64.88;52551.97;10481552;28;20017;-76
2024/04/07 21:39:29;;;;;;;0.10;0.10;;;;;;;-145.06;66.00;52519.56;10485124;28;20475;-76
2024/04/07 21:44:29;;;;;;;0.00;0.00;;;;;;;-145.06;67.11;52535.75;10479984;28;20532;-77
2024/04/07 21:49:29;;;;;;;0.10;0.10;;;;;;;-145.06;68.91;52527.66;10486212;28;20021;-76
2024/04/07 21:54:29;;;;;;;0.10;0.10;;;;;;;-145.06;69.99;52543.84;10480127;28;20021;-76
2024/04/07 21:59:30;;;;;;;0.10;0.10;;;;;;;-145.06;72.28;52541.84;10477686;28;20013;-78
2024/04/07 22:04:31;;;;;;;0.00;0.00;;;;;;;-145.06;75.41;52539.81;10478142;28;20016;-76
2024/04/07 22:09:31;;;;;;;0.00;0.00;;;;;;;-145.06;79.25;52515.53;10478764;28;20017;-76
2024/04/07 22:14:31;;;;;;;0.10;0.10;;;;;;;-145.06;83.64;52513.50;10483843;28;20390;-77
2024/04/07 22:19:32;;;;;;;0.10;0.10;;;;;;;-145.06;87.42;52491.22;10478415;28;20016;-75
2024/04/07 22:24:32;;;;;;;0.10;0.10;;;;;;;-145.06;91.95;52493.25;10469898;28;20037;-74
2024/04/07 22:29:32;;;;;;;0.10;0.10;;;;;;;-145.06;96.39;52444.66;10474751;28;20020;-74
2024/04/07 22:34:32;;;;;;;0.10;0.10;;;;;;;-145.06;100.00;52422.41;10474985;28;20485;-73
2024/04/07 22:39:33;;;;;;;0.00;0.00;;;;;;;-145.06;100.00;52420.38;10482841;28;20471;-73
2024/04/07 22:44:33;;;;;;;0.00;0.00;;;;;;;-145.06;100.00;52430.50;10477750;28;20055;-73
2024/04/07 22:49:33;;;;;;;0.00;0.00;;;;;;;-145.06;100.00;52406.19;10468727;28;20089;-73
2024/04/07 22:54:34;;;;;;;0.00;0.00;;;;;;;-145.06;100.00;52420.38;10470790;28;20020;-73